Time;durP1;ratioP1;P1;durP2;ratioP2;P2;SDS_P1;SDS_P2;PMS_P1;PMS_P2;Temp;Humidity;BMP_temperature;BMP_pressure;BME280_temperature;BME280_humidity;BME280_pressure;Samples;Min_cycle;Max_cycle;Signal;HPM_P1;HPM_P2
2021/12/14 00:01:13;;;;;;;13.27;8.20;;;;;;;7.23;93.13;102607.22;5084802;28;20404;-72
2021/12/14 00:03:41;;;;;;;15.35;8.13;;;;;;;7.22;93.57;102602.75;5077882;28;20023;-75
2021/12/14 00:06:09;;;;;;;11.80;8.18;;;;;;;7.20;93.52;102596.50;5080562;28;20490;-73
2021/12/14 00:08:48;;;;;;;11.63;8.13;;;;;;;7.21;93.56;102599.16;5088045;28;20040;-74
2021/12/14 00:11:50;;;;;;;10.30;7.22;;;;;;;7.21;93.30;102603.69;5074500;28;20028;-76
2021/12/14 00:15:03;;;;;;;11.32;7.07;;;;;;;7.23;93.33;102601.81;5082732;28;20071;-76
2021/12/14 00:17:21;;;;;;;11.85;7.10;;;;;;;7.22;93.40;102600.94;5085531;28;20127;-76
2021/12/14 00:19:48;;;;;;;12.18;7.97;;;;;;;7.22;93.70;102591.91;5084068;28;20480;-75
2021/12/14 00:22:21;;;;;;;9.57;7.00;;;;;;;7.21;93.63;102603.69;5088039;28;20059;-72
2021/12/14 00:24:47;;;;;;;12.07;7.50;;;;;;;7.20;94.10;102604.63;5072135;28;20036;-76
2021/12/14 00:27:16;;;;;;;12.13;7.47;;;;;;;7.21;94.15;102607.28;5077965;28;20114;-75
2021/12/14 00:29:46;;;;;;;11.52;7.55;;;;;;;7.20;94.07;102607.34;5086508;28;20039;-73
2021/12/14 00:32:19;;;;;;;11.48;7.32;;;;;;;7.21;93.90;102609.09;5087793;28;20027;-76
2021/12/14 00:34:48;;;;;;;16.13;8.50;;;;;;;7.21;93.75;102604.56;5083953;28;20036;-72
2021/12/14 00:37:21;;;;;;;12.32;7.97;;;;;;;7.20;93.70;102610.94;5073920;28;20028;-76
2021/12/14 00:39:49;;;;;;;12.82;7.95;;;;;;;7.21;93.82;102606.41;5079076;28;20420;-75
2021/12/14 00:42:15;;;;;;;17.75;8.55;;;;;;;7.17;93.79;102619.13;5084167;28;20038;-72
2021/12/14 00:44:41;;;;;;;16.50;9.25;;;;;;;7.19;94.05;102625.41;5087677;28;20027;-74
2021/12/14 00:47:06;;;;;;;13.77;8.10;;;;;;;7.15;94.24;102621.00;5083263;28;20032;-77
2021/12/14 00:49:32;;;;;;;15.32;8.15;;;;;;;7.19;94.30;102625.41;5087518;28;20132;-76
2021/12/14 00:51:59;;;;;;;12.07;7.88;;;;;;;7.20;94.04;102629.88;5087283;28;20077;-73
2021/12/14 00:54:25;;;;;;;11.15;7.80;;;;;;;7.17;93.92;102646.19;5088199;28;20108;-75
2021/12/14 00:56:51;;;;;;;11.32;7.57;;;;;;;7.19;94.25;102638.94;5077919;28;20126;-76
2021/12/14 00:59:19;;;;;;;12.00;7.80;;;;;;;7.13;94.27;102642.72;5086306;28;20016;-77
2021/12/14 01:01:49;;;;;;;14.05;8.00;;;;;;;7.19;94.23;102652.47;5095461;28;20116;-75
2021/12/14 01:04:22;;;;;;;13.52;8.88;;;;;;;7.18;94.28;102645.28;5080647;28;20032;-74
2021/12/14 01:06:48;;;;;;;12.98;7.97;;;;;;;7.18;93.97;102636.25;5087441;28;20024;-73
2021/12/14 01:09:24;;;;;;;13.57;8.25;;;;;;;7.18;94.01;102626.34;5086108;28;20101;-73
2021/12/14 01:11:51;;;;;;;14.10;8.60;;;;;;;7.17;94.00;102624.53;5075933;28;20024;-74
2021/12/14 01:14:32;;;;;;;13.60;8.98;;;;;;;7.15;94.01;102618.31;5090036;28;20039;-75
2021/12/14 01:17:11;;;;;;;12.88;7.97;;;;;;;7.14;94.26;102620.13;5088082;28;20138;-77
2021/12/14 01:19:46;;;;;;;13.52;9.07;;;;;;;7.15;94.18;102621.00;5089930;28;20027;-76
2021/12/14 01:27:18;;;;;;;13.73;9.27;;;;;;;7.14;94.41;102639.06;5080142;28;20399;-75
2021/12/14 01:29:47;;;;;;;11.52;8.05;;;;;;;7.14;94.02;102606.59;5087482;28;20016;-76
2021/12/14 01:32:12;;;;;;;14.00;8.38;;;;;;;7.15;94.35;102607.47;5085511;28;20391;-77
2021/12/14 01:34:38;;;;;;;12.55;8.13;;;;;;;7.13;94.13;102604.81;5093168;28;20028;-75
2021/12/14 01:37:12;;;;;;;14.70;8.88;;;;;;;7.14;94.30;102605.72;5085627;28;20024;-73
2021/12/14 01:39:48;;;;;;;15.75;8.63;;;;;;;7.12;94.28;102613.84;5087279;28;20016;-75
2021/12/14 01:42:20;;;;;;;12.45;8.07;;;;;;;7.11;94.16;102595.84;5081951;28;20050;-73
2021/12/14 01:44:57;;;;;;;11.38;7.63;;;;;;;7.11;94.41;102600.38;5088538;28;20368;-75
2021/12/14 01:47:29;;;;;;;13.20;8.02;;;;;;;7.07;94.12;102604.97;5097303;28;20136;-73
2021/12/14 01:49:55;;;;;;;15.43;8.40;;;;;;;7.09;94.14;102605.84;5089449;28;20479;-75
2021/12/14 01:52:27;;;;;;;13.73;7.90;;;;;;;7.06;93.87;102599.63;5089768;28;20032;-75
2021/12/14 01:55:04;;;;;;;12.43;7.43;;;;;;;7.07;94.29;102595.97;5081185;28;20025;-75
2021/12/14 01:57:32;;;;;;;12.88;7.72;;;;;;;7.06;93.95;102596.91;5086183;28;20053;-75
2021/12/14 02:00:01;;;;;;;12.05;7.18;;;;;;;7.06;94.04;102586.97;5090473;28;20035;-75
2021/12/14 02:02:46;;;;;;;13.30;7.40;;;;;;;7.06;94.27;102586.97;5089315;28;20024;-75
2021/12/14 02:05:19;;;;;;;12.73;6.85;;;;;;;7.04;93.81;102582.53;5085521;28;20102;-76
2021/12/14 02:07:45;;;;;;;12.13;7.18;;;;;;;7.05;93.87;102578.91;5090433;28;20031;-77
2021/12/14 02:10:34;;;;;;;9.77;7.32;;;;;;;7.05;93.83;102570.81;5081501;28;20438;-78
2021/12/14 02:13:00;;;;;;;12.93;6.35;;;;;;;6.97;93.93;102551.19;5074275;28;20052;-73
2021/12/14 02:15:34;;;;;;;9.63;6.43;;;;;;;7.00;93.99;102568.22;5085750;28;20048;-75
2021/12/14 02:18:06;;;;;;;9.68;6.18;;;;;;;7.00;93.80;102579.06;5076099;28;20195;-77
2021/12/14 02:20:37;;;;;;;8.60;5.50;;;;;;;6.99;93.51;102570.97;5083819;28;20451;-76
2021/12/14 02:23:03;;;;;;;8.25;5.63;;;;;;;6.98;93.82;102580.03;5068495;28;20032;-73
2021/12/14 02:25:28;;;;;;;9.82;5.95;;;;;;;6.98;93.29;102580.03;5080534;28;20113;-74
2021/12/14 02:27:59;;;;;;;9.30;5.97;;;;;;;6.99;93.75;102582.66;5080143;28;20047;-73
2021/12/14 02:30:29;;;;;;;14.40;5.32;;;;;;;6.99;93.89;102581.78;5081565;28;20044;-73
2021/12/14 02:32:56;;;;;;;8.85;5.60;;;;;;;6.96;93.22;102573.78;5078006;28;20016;-75
2021/12/14 02:35:25;;;;;;;12.02;5.00;;;;;;;6.97;93.50;102579.13;5087402;28;20089;-73
2021/12/14 02:37:55;;;;;;;10.65;5.93;;;;;;;6.95;93.62;102582.81;5077939;28;20103;-73
2021/12/14 02:40:54;;;;;;;8.45;5.38;;;;;;;6.95;93.28;102589.13;5076801;28;20479;-76
2021/12/14 02:43:42;;;;;;;12.05;5.97;;;;;;;6.94;93.47;102583.75;5083128;28;20028;-75
2021/12/14 02:46:19;;;;;;;6.50;4.60;;;;;;;6.96;93.08;102595.44;5089770;28;20051;-77
2021/12/14 02:48:51;;;;;;;10.43;5.30;;;;;;;6.95;93.22;102589.13;5076861;28;20191;-75
2021/12/14 02:51:23;;;;;;;9.25;5.00;;;;;;;6.92;93.10;102586.50;5077283;28;20159;-76
2021/12/14 02:53:52;;;;;;;10.40;5.45;;;;;;;6.92;93.35;102583.81;5093518;28;20026;-74
2021/12/14 02:56:21;;;;;;;10.52;5.72;;;;;;;6.91;93.00;102576.63;5077692;28;20388;-73
2021/12/14 02:58:48;;;;;;;10.73;4.93;;;;;;;6.86;93.27;102563.22;5089853;28;20505;-77
2021/12/14 03:01:16;;;;;;;8.38;4.68;;;;;;;6.88;93.04;102566.75;5074233;28;20031;-75
2021/12/14 03:03:43;;;;;;;9.90;4.70;;;;;;;6.87;93.26;102564.09;5089850;28;20036;-73
2021/12/14 03:06:10;;;;;;;8.05;5.10;;;;;;;6.87;93.11;102570.41;5088846;28;20055;-77
2021/12/14 03:08:44;;;;;;;9.45;4.65;;;;;;;6.87;93.32;102561.41;5082479;28;20036;-75
2021/12/14 03:11:11;;;;;;;7.95;4.65;;;;;;;6.84;92.91;102551.53;5080550;28;20124;-72
2021/12/14 03:13:46;;;;;;;8.32;5.00;;;;;;;6.83;93.28;102541.66;5077689;28;20388;-72
2021/12/14 03:16:19;;;;;;;8.18;5.15;;;;;;;6.84;93.05;102538.03;5087495;28;20032;-73
2021/12/14 03:18:48;;;;;;;8.18;4.72;;;;;;;6.81;93.14;102535.44;5089308;28;20131;-75
2021/12/14 03:21:20;;;;;;;10.80;4.80;;;;;;;6.79;93.42;102534.56;5088845;28;20032;-75
2021/12/14 03:23:49;;;;;;;9.63;4.60;;;;;;;6.79;93.37;102539.97;5087123;28;20077;-76
2021/12/14 03:26:23;;;;;;;10.00;4.30;;;;;;;6.78;93.56;102535.50;5094335;28;20471;-76
2021/12/14 03:28:51;;;;;;;7.78;4.75;;;;;;;6.78;93.30;102537.31;5075193;28;20077;-75
2021/12/14 03:31:35;;;;;;;11.10;4.78;;;;;;;6.77;93.47;102541.84;5075566;28;20107;-75
2021/12/14 03:34:09;;;;;;;9.88;5.15;;;;;;;6.76;93.18;102537.38;5076033;28;20077;-77
2021/12/14 03:36:42;;;;;;;8.45;5.03;;;;;;;6.76;93.21;102544.59;5087757;28;20035;-77
2021/12/14 03:39:07;;;;;;;;;;;;;;;6.78;93.08;102529.22;5088697;28;20024;-73
2021/12/14 03:41:53;;;;;;;9.75;5.28;;;;;;;6.76;93.00;102531.97;5071703;28;19927;-75
2021/12/14 03:44:29;;;;;;;9.27;5.60;;;;;;;6.73;93.35;102523.94;5075601;28;20070;-77
2021/12/14 03:47:13;;;;;;;11.18;5.95;;;;;;;6.72;93.25;102533.00;5103954;28;20026;-72
2021/12/14 03:49:44;;;;;;;12.05;5.60;;;;;;;6.71;93.40;102552.81;5080171;28;20052;-74
2021/12/14 03:52:14;;;;;;;12.05;5.40;;;;;;;6.69;93.46;102561.94;5085121;28;20031;-76
2021/12/14 03:54:40;;;;;;;13.65;5.55;;;;;;;6.72;93.40;102578.09;5087833;28;20024;-76
2021/12/14 03:57:06;;;;;;;14.98;5.97;;;;;;;6.70;93.76;102577.22;5082595;28;20099;-76
2021/12/14 03:59:32;;;;;;;10.23;5.75;;;;;;;6.73;93.62;102587.97;5087415;28;20095;-77
2021/12/14 04:02:01;;;;;;;12.15;6.32;;;;;;;6.73;93.96;102593.38;5088734;28;20106;-75
2021/12/14 04:04:33;;;;;;;9.82;5.43;;;;;;;6.73;93.70;102591.56;5083607;28;20466;-75
2021/12/14 04:07:00;;;;;;;12.55;6.57;;;;;;;6.73;93.62;102590.69;5097039;28;20463;-75
2021/12/14 04:09:33;;;;;;;13.10;6.57;;;;;;;6.73;93.62;102596.09;5093369;28;20024;-75
2021/12/14 04:11:58;;;;;;;12.93;6.80;;;;;;;6.73;93.46;102599.66;5067733;28;20051;-74
2021/12/14 04:14:30;;;;;;;11.70;6.72;;;;;;;6.72;93.65;102588.91;5081445;28;20424;-74
2021/12/14 04:16:58;;;;;;;14.45;7.47;;;;;;;6.71;93.83;102590.69;5088410;28;20049;-75
2021/12/14 04:19:27;;;;;;;13.98;7.20;;;;;;;6.71;93.75;102579.88;5088869;28;20039;-74
2021/12/14 04:21:56;;;;;;;15.70;8.30;;;;;;;6.68;93.66;102579.09;5082798;28;20119;-75
2021/12/14 04:24:24;;;;;;;13.38;7.68;;;;;;;6.67;93.53;102578.22;5086423;28;20035;-76
2021/12/14 04:26:51;;;;;;;16.48;7.57;;;;;;;6.67;93.72;102583.63;5074749;28;20407;-72
2021/12/14 04:29:17;;;;;;;15.82;8.10;;;;;;;6.69;93.82;102581.75;5103735;28;20016;-73
2021/12/14 04:31:44;;;;;;;19.15;8.00;;;;;;;6.67;93.75;102583.63;5086946;28;20016;-75
2021/12/14 04:34:10;;;;;;;15.13;8.07;;;;;;;6.69;94.11;102580.88;5075043;28;20032;-76
2021/12/14 04:36:36;;;;;;;17.00;9.25;;;;;;;6.68;93.72;102574.56;5087267;28;20028;-76
2021/12/14 04:39:33;;;;;;;16.90;8.73;;;;;;;6.65;94.16;102567.41;5072610;28;20499;-76
2021/12/14 04:53:11;;;;;;;22.30;9.50;;;;;;;6.68;93.95;102569.16;5086320;28;20115;-73
2021/12/14 04:55:44;;;;;;;17.25;8.13;;;;;;;6.68;94.08;102560.16;5083326;28;20054;-76
2021/12/14 04:58:11;;;;;;;17.48;8.07;;;;;;;6.68;93.85;102555.66;5073179;28;20103;-73
2021/12/14 05:00:47;;;;;;;17.83;8.73;;;;;;;6.67;94.05;102558.38;5087230;28;20098;-76
2021/12/14 05:03:22;;;;;;;15.25;7.57;;;;;;;6.65;93.88;102559.31;5093308;28;20040;-75
2021/12/14 05:05:51;;;;;;;20.23;8.10;;;;;;;6.65;94.03;102559.31;5094802;28;20032;-75
2021/12/14 05:11:00;;;;;;;18.02;9.07;;;;;;;6.66;94.16;102568.31;5074414;28;20029;-72
2021/12/14 05:13:29;;;;;;;17.05;8.65;;;;;;;6.65;94.37;102556.59;5100461;28;20024;-75
2021/12/14 05:15:54;;;;;;;16.05;7.55;;;;;;;6.63;94.25;102550.38;5080788;28;20024;-76
2021/12/14 05:18:23;;;;;;;18.20;8.90;;;;;;;6.65;93.71;102553.91;5087950;28;20494;-75
2021/12/14 05:20:50;;;;;;;17.55;8.55;;;;;;;6.64;94.01;102552.13;5085850;28;20024;-76
2021/12/14 05:23:34;;;;;;;15.73;8.18;;;;;;;6.66;94.00;102557.50;5082454;28;20443;-76
2021/12/14 05:26:03;;;;;;;16.45;8.75;;;;;;;6.68;93.89;102558.34;5069717;28;20376;-76
2021/12/14 05:28:30;;;;;;;20.75;9.73;;;;;;;6.68;93.95;102561.06;5086310;28;20395;-76
2021/12/14 05:30:58;;;;;;;23.15;9.77;;;;;;;6.68;93.86;102543.94;5077598;28;20023;-76
2021/12/14 05:33:31;;;;;;;19.65;8.82;;;;;;;6.64;93.83;102553.94;5087846;28;20418;-76
2021/12/14 05:35:58;;;;;;;;;;;;;;;6.67;93.57;102543.06;5087389;28;20108;-72
2021/12/14 05:38:40;;;;;;;24.25;9.00;;;;;;;6.64;94.19;102544.03;5086121;28;19919;-72
2021/12/14 05:43:51;;;;;;;18.38;8.93;;;;;;;6.60;93.97;102546.84;5088415;28;20070;-76
2021/12/14 05:46:20;;;;;;;17.90;8.90;;;;;;;6.56;94.25;102546.03;5087612;28;20047;-76
2021/12/14 05:48:46;;;;;;;16.88;9.05;;;;;;;6.59;94.14;102550.50;5087702;28;20483;-76
2021/12/14 05:51:11;;;;;;;18.95;9.40;;;;;;;6.60;94.02;102557.69;5079923;28;20081;-76
2021/12/14 05:53:45;;;;;;;17.95;9.30;;;;;;;6.60;94.19;102558.56;5082663;28;20479;-72
2021/12/14 05:56:14;;;;;;;20.98;9.15;;;;;;;6.60;94.22;102565.78;5081910;28;20028;-76
2021/12/14 05:58:40;;;;;;;23.77;10.60;;;;;;;6.61;94.13;102575.66;5071837;28;20012;-76
2021/12/14 06:01:09;;;;;;;20.42;9.45;;;;;;;6.62;93.89;102575.66;5087904;28;20046;-75
2021/12/14 06:03:41;;;;;;;22.77;9.27;;;;;;;6.64;93.93;102575.59;5089201;28;20061;-73
2021/12/14 06:06:14;;;;;;;21.95;9.63;;;;;;;6.62;94.05;102572.03;5090968;28;20020;-73
2021/12/14 06:08:40;;;;;;;22.55;9.82;;;;;;;6.61;94.03;102579.25;5076797;28;20483;-76
2021/12/14 06:11:05;;;;;;;22.55;10.77;;;;;;;6.61;93.84;102581.06;5086850;28;20020;-76
2021/12/14 06:13:40;;;;;;;20.30;10.32;;;;;;;6.59;94.23;102572.13;5089613;28;20099;-74
2021/12/14 06:16:08;;;;;;;22.48;10.25;;;;;;;6.61;93.91;102581.97;5088380;28;20080;-77
2021/12/14 06:18:34;;;;;;;23.05;10.10;;;;;;;6.60;94.00;102579.31;5084350;28;20036;-77
2021/12/14 06:21:00;;;;;;;21.92;10.38;;;;;;;6.57;94.10;102580.25;5086845;28;20020;-77
2021/12/14 06:23:28;;;;;;;23.70;10.85;;;;;;;6.60;94.04;102592.81;5090410;28;20387;-75
2021/12/14 06:25:54;;;;;;;23.45;10.68;;;;;;;6.58;93.99;102589.28;5078073;28;20443;-77
2021/12/14 06:28:28;;;;;;;21.38;10.35;;;;;;;6.60;94.14;102590.13;5079217;28;20100;-73
2021/12/14 06:30:55;;;;;;;21.98;9.43;;;;;;;6.53;94.08;102577.72;5090730;28;20040;-73
2021/12/14 06:33:21;;;;;;;24.98;11.32;;;;;;;6.59;94.44;102578.41;5076943;28;20024;-75
2021/12/14 06:35:51;;;;;;;24.13;10.20;;;;;;;6.56;94.18;102575.78;5071844;28;20039;-78
2021/12/14 06:38:28;;;;;;;27.95;10.82;;;;;;;6.56;93.89;102583.03;5080445;28;20020;-74
2021/12/14 06:41:12;;;;;;;28.27;11.68;;;;;;;6.58;94.04;102598.28;5072806;28;20052;-74
2021/12/14 06:43:43;;;;;;;26.05;11.10;;;;;;;6.58;94.25;102594.69;5077250;28;20012;-77
2021/12/14 06:46:13;;;;;;;22.05;10.38;;;;;;;6.56;94.17;102586.59;5089791;28;20438;-77
2021/12/14 06:48:45;;;;;;;29.25;12.18;;;;;;;6.54;94.09;102585.78;5088828;28;20024;-76
2021/12/14 06:51:21;;;;;;;25.67;11.55;;;;;;;6.57;94.14;102599.19;5074556;28;20499;-75
2021/12/14 06:53:49;;;;;;;26.00;12.30;;;;;;;6.55;94.33;102598.34;5083335;28;20053;-75
2021/12/14 06:56:16;;;;;;;27.35;12.25;;;;;;;6.56;94.20;102601.94;5082522;28;20028;-77
2021/12/14 06:58:52;;;;;;;30.00;12.00;;;;;;;6.57;94.29;102614.53;5088293;28;20024;-78
2021/12/14 07:01:22;;;;;;;29.80;12.38;;;;;;;6.57;94.11;102606.41;5103998;28;20391;-79
2021/12/14 07:03:52;;;;;;;29.35;13.05;;;;;;;6.55;94.55;102611.00;5088116;28;20115;-79
2021/12/14 07:06:25;;;;;;;30.08;13.10;;;;;;;6.56;94.43;102613.66;5087857;28;20028;-77
2021/12/14 07:08:52;;;;;;;29.60;12.00;;;;;;;6.57;94.37;102618.13;5082403;28;20039;-74
2021/12/14 07:11:23;;;;;;;29.08;13.27;;;;;;;6.55;94.37;102614.59;5081610;28;20596;-78
2021/12/14 07:13:50;;;;;;;28.60;12.43;;;;;;;6.56;94.47;102615.47;5079221;28;20673;-78
2021/12/14 07:16:39;;;;;;;32.28;13.93;;;;;;;6.57;94.26;102622.66;5069532;28;20032;-78
2021/12/14 07:19:06;;;;;;;30.83;12.75;;;;;;;6.54;94.48;102625.44;5069189;28;20410;-78
2021/12/14 07:21:43;;;;;;;27.75;13.18;;;;;;;6.56;94.38;102634.41;5067415;28;20242;-74
2021/12/14 07:24:23;;;;;;;29.98;12.40;;;;;;;6.57;94.06;102636.16;5067933;28;20080;-76
2021/12/14 07:27:19;;;;;;;33.72;13.90;;;;;;;6.58;94.13;102635.25;5070734;28;20169;-74
2021/12/14 07:29:46;;;;;;;31.52;13.55;;;;;;;6.57;94.76;102647.88;5089446;28;20024;-79
2021/12/14 07:32:12;;;;;;;31.98;13.63;;;;;;;6.55;94.32;102640.75;5085899;28;20051;-76
2021/12/14 07:34:37;;;;;;;31.13;12.38;;;;;;;6.56;94.27;102656.91;5087598;28;20063;-78
2021/12/14 07:37:03;;;;;;;33.75;14.38;;;;;;;6.56;94.45;102650.63;5088854;28;20042;-78
2021/12/14 07:39:28;;;;;;;29.58;13.27;;;;;;;6.55;94.13;102646.16;5084865;28;20021;-75
2021/12/14 07:41:58;;;;;;;32.40;13.93;;;;;;;6.58;94.54;102651.50;5080852;28;20123;-78
2021/12/14 07:44:27;;;;;;;32.15;12.27;;;;;;;6.60;94.28;102655.03;5089403;28;20036;-75
2021/12/14 07:46:54;;;;;;;29.33;13.25;;;;;;;6.59;94.57;102655.97;5086723;28;20490;-75
2021/12/14 07:49:19;;;;;;;32.08;14.43;;;;;;;6.59;94.52;102664.97;5089263;28;20024;-77
2021/12/14 07:51:47;;;;;;;31.10;13.23;;;;;;;6.59;94.42;102667.66;5089066;28;20380;-74
2021/12/14 07:54:20;;;;;;;32.97;14.18;;;;;;;6.59;94.27;102669.47;5086295;28;20281;-75
2021/12/14 07:56:49;;;;;;;30.60;13.82;;;;;;;6.60;94.65;102671.25;5085439;28;20027;-77
2021/12/14 07:59:26;;;;;;;36.28;15.45;;;;;;;6.62;94.30;102678.41;5087599;28;20024;-74
2021/12/14 08:02:08;;;;;;;29.52;13.45;;;;;;;6.64;94.57;102678.34;5087854;28;20023;-75
2021/12/14 08:04:36;;;;;;;31.48;14.48;;;;;;;6.63;94.42;102679.28;5081279;28;20035;-74
2021/12/14 08:07:02;;;;;;;33.97;13.68;;;;;;;6.63;94.38;102680.19;5074094;28;20049;-78
2021/12/14 08:09:51;;;;;;;33.40;13.75;;;;;;;6.62;94.57;102683.81;5101442;28;20027;-77
2021/12/14 08:12:28;;;;;;;34.95;12.93;;;;;;;6.65;94.08;102685.53;5075045;28;20049;-74
2021/12/14 08:15:10;;;;;;;31.52;13.55;;;;;;;6.65;94.09;102682.81;5088714;28;20131;-76
2021/12/14 08:17:36;;;;;;;32.97;14.40;;;;;;;6.65;94.62;102683.72;5085779;28;20141;-76
2021/12/14 08:20:04;;;;;;;35.72;14.20;;;;;;;6.68;94.06;102684.56;5086791;28;20027;-74
2021/12/14 08:22:34;;;;;;;34.78;13.55;;;;;;;6.68;94.08;102685.47;5085128;28;20024;-78
2021/12/14 08:25:00;;;;;;;35.35;15.48;;;;;;;6.70;94.04;102691.72;5092254;28;20446;-77
2021/12/14 08:27:28;;;;;;;33.47;14.35;;;;;;;6.70;94.22;102686.28;5082533;28;20031;-74
2021/12/14 08:29:57;;;;;;;34.88;14.18;;;;;;;6.73;94.14;102690.75;5088542;28;20020;-77
2021/12/14 08:32:28;;;;;;;34.72;13.90;;;;;;;6.71;94.38;102682.66;5087211;28;20024;-77
2021/12/14 08:34:56;;;;;;;37.05;15.20;;;;;;;6.75;94.42;102688.88;5074664;28;20039;-74
2021/12/14 08:37:32;;;;;;;35.90;15.07;;;;;;;6.76;94.06;102691.56;5087070;28;20406;-76
2021/12/14 08:40:05;;;;;;;40.67;16.90;;;;;;;6.78;94.35;102688.81;5081241;28;20504;-78
2021/12/14 08:42:44;;;;;;;34.85;14.48;;;;;;;6.79;94.10;102693.28;5084432;28;20032;-78
2021/12/14 08:45:28;;;;;;;37.28;15.38;;;;;;;6.83;94.36;102694.97;5087779;28;20050;-77
2021/12/14 08:48:10;;;;;;;36.85;15.18;;;;;;;6.82;93.84;102688.69;5094759;28;20467;-74
2021/12/14 08:50:47;;;;;;;39.00;16.42;;;;;;;6.85;94.10;102684.97;5072907;28;20116;-78
2021/12/14 08:53:15;;;;;;;38.72;17.70;;;;;;;6.86;93.70;102693.09;5088025;28;20051;-76
2021/12/14 08:55:45;;;;;;;36.83;15.82;;;;;;;6.87;94.07;102702.97;5082412;28;20463;-78
2021/12/14 08:58:12;;;;;;;38.72;16.25;;;;;;;6.89;93.68;102703.81;5070803;28;20024;-76
2021/12/14 09:00:44;;;;;;;46.67;19.10;;;;;;;6.92;94.05;102702.84;5081962;28;20028;-77
2021/12/14 09:03:13;;;;;;;37.85;17.20;;;;;;;6.94;94.17;102692.84;5087968;28;20113;-74
2021/12/14 09:05:46;;;;;;;35.53;15.63;;;;;;;6.99;93.72;102704.44;5086222;28;20161;-77
2021/12/14 09:08:13;;;;;;;33.83;15.23;;;;;;;7.02;93.79;102698.94;5074994;28;20032;-75
2021/12/14 09:10:41;;;;;;;36.58;15.95;;;;;;;7.05;93.81;102700.69;5085021;28;20024;-78
2021/12/14 09:13:09;;;;;;;36.13;14.73;;;;;;;7.12;93.86;102710.41;5085577;28;20024;-74
2021/12/14 09:15:43;;;;;;;41.42;18.05;;;;;;;7.15;93.51;102704.91;5086655;28;20026;-77
2021/12/14 09:18:09;;;;;;;36.63;15.68;;;;;;;7.18;93.37;102707.53;5087387;28;20039;-78
2021/12/14 09:20:39;;;;;;;35.78;15.93;;;;;;;7.20;93.67;102712.91;5078063;28;20029;-74
2021/12/14 09:23:14;;;;;;;40.97;18.45;;;;;;;7.24;93.70;102712.78;5087710;28;20040;-77
2021/12/14 09:25:41;;;;;;;38.75;15.45;;;;;;;7.33;93.37;102714.34;5070826;28;20027;-75
2021/12/14 09:28:08;;;;;;;38.72;15.65;;;;;;;7.38;93.37;102717.78;5079310;28;20527;-76
2021/12/14 09:30:38;;;;;;;41.90;17.35;;;;;;;7.39;92.91;102715.03;5087397;28;20069;-77
2021/12/14 09:33:05;;;;;;;40.45;17.02;;;;;;;7.45;92.67;102716.66;5075226;28;20460;-78
2021/12/14 09:35:34;;;;;;;36.63;15.43;;;;;;;7.48;92.71;102716.59;5085109;28;20329;-75
2021/12/14 09:38:02;;;;;;;38.03;16.58;;;;;;;7.48;92.98;102711.16;5082221;28;20024;-74
2021/12/14 09:40:32;;;;;;;33.75;15.25;;;;;;;7.48;93.12;102713.00;5085001;28;20032;-74
2021/12/14 09:42:58;;;;;;;36.22;16.60;;;;;;;7.47;93.00;102711.22;5078445;28;20115;-75
2021/12/14 09:45:35;;;;;;;33.30;16.15;;;;;;;7.46;92.76;102713.03;5090104;28;20118;-75
2021/12/14 09:48:05;;;;;;;39.97;16.88;;;;;;;7.45;92.55;102708.53;5089877;28;20388;-78
2021/12/14 09:50:34;;;;;;;37.97;17.27;;;;;;;7.44;92.74;102701.34;5088535;28;20044;-77
2021/12/14 09:53:03;;;;;;;38.35;17.08;;;;;;;7.45;92.90;102694.13;5090868;28;20032;-74
2021/12/14 09:55:32;;;;;;;38.92;17.48;;;;;;;7.47;92.63;102694.97;5087857;28;20084;-78
2021/12/14 09:58:01;;;;;;;41.95;17.00;;;;;;;7.47;92.67;102687.72;5103470;28;20026;-78
2021/12/14 10:00:33;;;;;;;41.47;17.70;;;;;;;7.49;92.72;102684.97;5089169;28;20111;-77
2021/12/14 10:03:01;;;;;;;32.50;16.27;;;;;;;7.52;92.32;102685.78;5089479;28;20069;-77
2021/12/14 10:05:38;;;;;;;40.88;18.48;;;;;;;7.54;92.50;102688.44;5081526;28;20471;-76
2021/12/14 10:08:14;;;;;;;40.53;17.38;;;;;;;7.56;92.90;102690.16;5086517;28;20024;-74
2021/12/14 10:10:58;;;;;;;40.80;16.92;;;;;;;7.63;93.11;102693.56;5081635;28;20039;-74
2021/12/14 10:13:25;;;;;;;38.17;17.52;;;;;;;7.71;92.95;102691.50;5090068;28;20024;-76
2021/12/14 10:15:54;;;;;;;39.60;15.82;;;;;;;7.73;92.76;102692.34;5090796;28;20089;-78
2021/12/14 10:18:24;;;;;;;39.88;17.60;;;;;;;7.78;92.55;102701.22;5079291;28;20024;-74
2021/12/14 10:20:56;;;;;;;42.78;19.25;;;;;;;7.82;92.15;102702.00;5088255;28;20020;-78
2021/12/14 10:23:22;;;;;;;46.03;19.15;;;;;;;7.88;92.56;102705.44;5089927;28;20028;-76
2021/12/14 10:25:49;;;;;;;46.28;18.58;;;;;;;7.93;92.22;102706.19;5087821;28;20208;-79
2021/12/14 10:28:16;;;;;;;37.58;17.80;;;;;;;7.99;92.14;102710.50;5083500;28;20028;-76
2021/12/14 10:30:45;;;;;;;39.97;18.48;;;;;;;8.03;92.06;102711.31;5090888;28;20024;-77
2021/12/14 10:33:12;;;;;;;48.60;18.25;;;;;;;8.10;92.24;102702.91;5087627;28;20028;-78
2021/12/14 10:35:45;;;;;;;39.25;17.98;;;;;;;8.09;91.83;102698.44;5102302;28;20020;-78
2021/12/14 10:38:36;;;;;;;41.20;18.38;;;;;;;8.15;91.59;102713.59;5089482;28;20028;-77
2021/12/14 10:44:00;;;;;;;37.70;16.38;;;;;;;8.18;91.29;102718.94;5090449;28;20441;-74
2021/12/14 10:46:29;;;;;;;39.78;17.42;;;;;;;8.20;91.46;102719.75;5091663;28;20098;-75
2021/12/14 10:48:57;;;;;;;37.20;17.23;;;;;;;8.21;91.17;102715.22;5095493;28;20031;-77
2021/12/14 10:51:27;;;;;;;38.80;17.80;;;;;;;8.21;91.57;102717.94;5089504;28;20408;-77
2021/12/14 10:53:55;;;;;;;38.97;17.10;;;;;;;8.22;91.26;102709.78;5090388;28;20441;-78
2021/12/14 10:56:28;;;;;;;40.80;17.17;;;;;;;8.21;91.20;102704.38;5083447;28;20028;-76
2021/12/14 10:58:59;;;;;;;42.85;17.90;;;;;;;8.21;91.24;102705.28;5090852;28;20035;-78
2021/12/14 11:01:31;;;;;;;36.30;17.35;;;;;;;8.22;91.33;102693.50;5104094;28;20069;-75
2021/12/14 11:04:03;;;;;;;39.33;16.80;;;;;;;8.27;90.87;102696.94;5090462;28;20383;-76
2021/12/14 11:06:32;;;;;;;40.22;17.70;;;;;;;8.29;91.14;102692.34;5079610;28;20119;-78
2021/12/14 11:11:55;;;;;;;38.78;16.88;;;;;;;8.33;91.68;102696.72;5082968;28;20032;-77
2021/12/14 11:14:25;;;;;;;39.10;18.25;;;;;;;8.35;91.01;102694.00;5084607;28;20020;-75
2021/12/14 11:19:43;;;;;;;38.25;18.08;;;;;;;8.42;90.71;102687.44;5085626;28;20043;-75
2021/12/14 11:22:23;;;;;;;40.05;18.23;;;;;;;8.50;91.39;102681.75;5089132;28;20472;-74
2021/12/14 11:24:53;;;;;;;45.00;19.02;;;;;;;8.54;91.11;102681.59;5087902;28;20028;-77
2021/12/14 11:27:22;;;;;;;36.88;18.02;;;;;;;8.60;90.96;102677.78;5071793;28;20165;-76
2021/12/14 11:30:10;;;;;;;47.78;19.85;;;;;;;8.65;91.24;102673.97;5082587;28;20495;-75
2021/12/14 11:32:40;;;;;;;41.58;18.52;;;;;;;8.67;90.30;102668.47;5085807;28;20027;-77
2021/12/14 11:35:29;;;;;;;40.25;19.25;;;;;;;8.69;90.36;102670.22;5079108;28;20077;-76
2021/12/14 11:37:58;;;;;;;43.65;20.30;;;;;;;8.67;89.91;102663.06;5076440;28;20024;-76
2021/12/14 11:40:26;;;;;;;45.55;18.73;;;;;;;8.71;89.95;102669.25;5083944;28;20402;-78
2021/12/14 11:42:53;;;;;;;44.47;19.45;;;;;;;8.74;90.25;102664.63;5073876;28;20115;-77
2021/12/14 11:45:22;;;;;;;37.28;17.75;;;;;;;8.75;90.19;102662.78;5088802;28;20495;-75
2021/12/14 11:47:54;;;;;;;44.65;19.15;;;;;;;8.79;89.68;102662.63;5081061;28;20059;-77
2021/12/14 11:50:32;;;;;;;46.70;20.35;;;;;;;8.82;90.05;102661.66;5088880;28;20447;-78
2021/12/14 11:53:13;;;;;;;45.05;18.23;;;;;;;8.82;89.84;102661.66;5068731;28;20073;-74
2021/12/14 11:55:56;;;;;;;42.50;21.42;;;;;;;8.86;89.98;102668.72;5084582;28;20047;-74
2021/12/14 11:58:33;;;;;;;44.95;19.13;;;;;;;8.84;89.99;102668.78;5075509;28;20038;-78
2021/12/14 12:01:08;;;;;;;40.47;19.23;;;;;;;8.87;89.63;102670.50;5084228;28;20029;-76
2021/12/14 12:03:59;;;;;;;48.05;19.52;;;;;;;8.83;89.85;102668.84;5087495;28;20028;-78
2021/12/14 12:06:45;;;;;;;41.95;19.42;;;;;;;8.84;90.05;102666.06;5077491;28;20630;-76
2021/12/14 12:09:33;;;;;;;46.35;19.98;;;;;;;8.81;89.47;102670.69;5082018;28;20126;-76
2021/12/14 12:12:07;;;;;;;45.47;19.90;;;;;;;8.83;89.74;102667.00;5076487;28;20064;-78